Time;durP1;ratioP1;P1;durP2;ratioP2;P2;SDS_P1;SDS_P2;PMS_P1;PMS_P2;Temp;Humidity;BMP_temperature;BMP_pressure;BME280_temperature;BME280_humidity;BME280_pressure;Samples;Min_cycle;Max_cycle;Signal;HPM_P1;HPM_P2
2023/03/04 00:00:56;;;;;;;0.80;0.80;;;;;;;7.46;100.00;100256.53;5092796;28;20218;-76
2023/03/04 00:03:23;;;;;;;1.30;1.30;;;;;;;7.40;100.00;100269.25;5093105;28;20194;-76
2023/03/04 00:05:50;;;;;;;0.70;0.70;;;;;;;7.36;100.00;100266.53;5093209;28;20206;-76
2023/03/04 00:08:17;;;;;;;0.73;0.73;;;;;;;7.27;100.00;100269.72;5074866;28;20206;-76
2023/03/04 00:10:44;;;;;;;0.90;0.90;;;;;;;7.02;100.00;100246.56;5072786;28;20211;-75
2023/03/04 00:13:12;;;;;;;0.60;0.60;;;;;;;7.19;100.00;100253.13;5072882;28;20194;-76
2023/03/04 00:15:39;;;;;;;0.57;0.57;;;;;;;7.08;100.00;100245.88;5072755;28;20202;-75
2023/03/04 00:18:06;;;;;;;0.80;0.80;;;;;;;7.06;100.00;100252.69;5072632;28;20585;-76
2023/03/04 00:20:32;;;;;;;1.00;1.00;;;;;;;7.04;100.00;100254.34;5055675;28;20217;-76
2023/03/04 00:22:59;;;;;;;0.63;0.63;;;;;;;7.05;100.00;100262.13;5092324;28;20205;-76
2023/03/04 00:25:26;;;;;;;0.60;0.60;;;;;;;7.03;100.00;100265.50;5092217;28;20599;-76
2023/03/04 00:27:53;;;;;;;0.60;0.60;;;;;;;7.00;100.00;100248.22;5092776;28;20199;-77
2023/03/04 00:30:21;;;;;;;0.60;0.60;;;;;;;7.16;100.00;100265.94;5091909;28;20190;-77
2023/03/04 00:32:48;;;;;;;0.70;0.70;;;;;;;7.13;100.00;100265.84;5092329;28;20198;-76
2023/03/04 00:35:15;;;;;;;3.30;2.07;;;;;;;7.15;100.00;100269.31;5091586;28;20202;-77
2023/03/04 00:37:41;;;;;;;0.70;0.70;;;;;;;7.16;100.00;100260.78;5092829;28;20645;-77
2023/03/04 00:40:10;;;;;;;0.70;0.70;;;;;;;7.27;100.00;100258.53;5092031;28;20229;-76
2023/03/04 00:42:37;;;;;;;0.80;0.80;;;;;;;7.28;100.00;100260.25;5056570;28;20193;-75
2023/03/04 00:45:04;;;;;;;0.70;0.70;;;;;;;7.32;100.00;100250.09;5092279;28;20190;-77
2023/03/04 00:47:33;;;;;;;0.70;0.70;;;;;;;7.35;100.00;100245.00;5092072;28;20205;-76
2023/03/04 00:49:59;;;;;;;0.50;0.50;;;;;;;7.27;100.00;100251.66;5091739;28;20194;-76
2023/03/04 00:52:26;;;;;;;0.70;0.70;;;;;;;7.27;100.00;100249.09;5091340;28;20191;-76
2023/03/04 00:54:53;;;;;;;0.80;0.80;;;;;;;7.34;100.00;100261.34;5091547;28;20219;-77
2023/03/04 00:57:20;;;;;;;1.10;1.10;;;;;;;7.28;100.00;100240.50;5091103;28;20229;-76
2023/03/04 00:59:46;;;;;;;0.60;0.60;;;;;;;7.34;100.00;100240.72;5091984;28;20202;-76
2023/03/04 01:02:14;;;;;;;0.73;0.73;;;;;;;7.40;100.00;100251.22;5091476;28;20198;-75
2023/03/04 01:04:42;;;;;;;0.60;0.60;;;;;;;7.55;100.00;100257.66;5050218;28;20202;-76
2023/03/04 01:07:09;;;;;;;0.70;0.70;;;;;;;7.41;100.00;100240.06;5091090;28;20202;-76
2023/03/04 01:09:35;;;;;;;0.70;0.70;;;;;;;7.02;100.00;100164.09;5091405;28;20187;-76
2023/03/04 01:12:02;;;;;;;1.17;1.17;;;;;;;7.60;100.00;100248.34;5091722;28;20201;-76
2023/03/04 01:14:29;;;;;;;0.90;0.90;;;;;;;7.66;100.00;100248.53;5091141;28;20218;-76
2023/03/04 01:16:56;;;;;;;0.67;0.67;;;;;;;7.62;100.00;100247.56;5091268;28;20648;-76
2023/03/04 01:19:23;;;;;;;0.80;0.80;;;;;;;7.44;100.00;100224.69;5038603;28;20695;-76
2023/03/04 01:21:51;;;;;;;0.80;0.80;;;;;;;7.61;100.00;100244.91;5091819;28;20233;-76
2023/03/04 01:24:18;;;;;;;0.80;0.80;;;;;;;7.56;100.00;100242.22;5091479;28;20194;-77
2023/03/04 01:26:45;;;;;;;0.83;0.83;;;;;;;7.51;100.00;100237.75;5090619;28;20209;-75
2023/03/04 01:29:12;;;;;;;1.37;1.37;;;;;;;7.57;100.00;100238.78;5091177;28;20554;-75
2023/03/04 01:31:39;;;;;;;0.80;0.80;;;;;;;7.64;100.00;100238.16;5091358;28;20198;-76
2023/03/04 01:34:08;;;;;;;0.63;0.63;;;;;;;7.59;100.00;100225.97;5090551;28;20205;-74
2023/03/04 01:36:35;;;;;;;0.60;0.60;;;;;;;7.46;100.00;100230.75;5091538;28;20198;-76
2023/03/04 01:39:04;;;;;;;0.70;0.70;;;;;;;7.06;100.00;100145.31;5090971;28;20194;-77
2023/03/04 01:41:31;;;;;;;1.73;1.63;;;;;;;7.62;100.00;100244.09;5090368;28;20727;-76
2023/03/04 01:44:01;;;;;;;0.77;0.77;;;;;;;7.60;100.00;100207.06;5088921;28;20304;-77
2023/03/04 01:46:28;;;;;;;0.80;0.80;;;;;;;7.65;100.00;100216.69;5055228;28;20206;-76
2023/03/04 01:48:55;;;;;;;0.60;0.60;;;;;;;7.77;100.00;100232.53;5091222;28;20201;-75
2023/03/04 01:51:23;;;;;;;1.07;1.07;;;;;;;7.71;100.00;100226.28;5090486;28;20205;-75
2023/03/04 01:53:52;;;;;;;1.13;1.03;;;;;;;7.22;100.00;100137.19;5055018;28;20194;-75
2023/03/04 01:56:24;;;;;;;0.60;0.60;;;;;;;7.69;100.00;100208.19;5090825;28;20194;-75
2023/03/04 01:59:11;;;;;;;0.50;0.50;;;;;;;7.82;100.00;100219.72;5090582;28;20225;-74
2023/03/04 02:01:39;;;;;;;0.70;0.70;;;;;;;7.78;100.00;100223.06;5074057;28;20222;-74
2023/03/04 02:04:07;;;;;;;6.20;1.57;;;;;;;7.67;100.00;100219.31;5074298;28;20686;-76
2023/03/04 02:06:35;;;;;;;0.60;0.60;;;;;;;7.53;100.00;100200.84;5090850;28;20238;-77
2023/03/04 02:09:02;;;;;;;0.70;0.70;;;;;;;7.59;100.00;100221.69;5090877;28;20202;-77
2023/03/04 02:11:30;;;;;;;0.80;0.80;;;;;;;7.46;100.00;100225.59;5090786;28;20202;-76
2023/03/04 02:13:57;;;;;;;0.80;0.80;;;;;;;7.38;100.00;100211.56;5090819;28;20197;-77
2023/03/04 02:16:24;;;;;;;0.67;0.67;;;;;;;7.33;100.00;100205.44;5086152;28;20206;-77
2023/03/04 02:18:51;;;;;;;0.80;0.80;;;;;;;7.28;100.00;100209.56;5070625;28;20592;-77
2023/03/04 02:21:23;;;;;;;0.60;0.60;;;;;;;7.31;100.00;100199.31;5070270;28;20296;-76
2023/03/04 02:23:58;;;;;;;0.63;0.63;;;;;;;7.13;100.00;100172.16;5070630;28;20207;-77
2023/03/04 02:26:27;;;;;;;0.70;0.70;;;;;;;7.11;100.00;100169.50;5070280;28;20206;-76
2023/03/04 02:28:56;;;;;;;1.23;1.23;;;;;;;7.26;100.00;100206.06;5077048;28;20202;-77
2023/03/04 02:31:25;;;;;;;0.90;0.90;;;;;;;7.28;100.00;100206.97;5090440;28;20217;-76
2023/03/04 02:33:54;;;;;;;0.70;0.70;;;;;;;7.09;100.00;100186.66;5090341;28;20687;-77
2023/03/04 02:36:22;;;;;;;0.80;0.80;;;;;;;7.16;100.00;100198.00;5090032;28;20206;-77
2023/03/04 02:38:50;;;;;;;0.60;0.60;;;;;;;7.24;100.00;100202.56;5090734;28;20570;-76
2023/03/04 02:41:21;;;;;;;0.70;0.70;;;;;;;7.24;100.00;100196.56;5090882;28;20226;-77
2023/03/04 02:43:51;;;;;;;0.60;0.60;;;;;;;7.08;100.00;100158.22;5090606;28;20209;-77
2023/03/04 02:46:19;;;;;;;1.23;1.23;;;;;;;7.25;100.00;100198.28;5089655;28;20229;-77
2023/03/04 02:48:46;;;;;;;0.60;0.60;;;;;;;7.22;100.00;100204.22;5089688;28;20213;-77
2023/03/04 02:51:13;;;;;;;0.70;0.70;;;;;;;7.20;100.00;100195.59;5090312;28;20681;-77
2023/03/04 02:53:39;;;;;;;0.73;0.73;;;;;;;7.08;100.00;100182.31;5055474;28;20221;-75
2023/03/04 02:56:07;;;;;;;0.80;0.80;;;;;;;7.27;100.00;100204.38;5090323;28;20225;-75
2023/03/04 02:58:34;;;;;;;0.80;0.80;;;;;;;7.34;100.00;100203.72;5054440;28;20256;-75
2023/03/04 03:01:02;;;;;;;0.70;0.70;;;;;;;7.43;100.00;100204.84;5054625;28;20221;-75
2023/03/04 03:03:28;;;;;;;0.70;0.70;;;;;;;7.38;100.00;100209.00;5090483;28;20198;-75
2023/03/04 03:05:55;;;;;;;0.70;0.70;;;;;;;7.35;100.00;100189.97;5090455;28;20198;-75
2023/03/04 03:08:23;;;;;;;1.27;1.17;;;;;;;7.38;100.00;100188.38;5090233;28;20205;-76
2023/03/04 03:10:49;;;;;;;1.37;1.37;;;;;;;7.54;100.00;100206.88;5078545;28;20264;-75
2023/03/04 03:13:17;;;;;;;0.90;0.90;;;;;;;7.57;100.00;100212.13;5072992;28;20202;-75
2023/03/04 03:15:44;;;;;;;0.80;0.80;;;;;;;7.54;100.00;100206.88;5090241;28;20228;-75
2023/03/04 03:18:12;;;;;;;0.60;0.60;;;;;;;7.51;100.00;100206.78;5089556;28;20197;-75
2023/03/04 03:20:39;;;;;;;0.80;0.80;;;;;;;7.33;100.00;100165.84;5090183;28;20226;-75
2023/03/04 03:23:06;;;;;;;0.60;0.60;;;;;;;7.56;100.00;100200.94;5090262;28;20195;-76
2023/03/04 03:25:32;;;;;;;3.80;1.63;;;;;;;7.52;100.00;100208.53;5089974;28;20240;-76
2023/03/04 03:27:59;;;;;;;0.70;0.70;;;;;;;7.58;100.00;100208.72;5090107;28;20661;-75
2023/03/04 03:30:26;;;;;;;0.90;0.90;;;;;;;7.31;100.00;100146.91;5090285;28;20205;-75
2023/03/04 03:32:53;;;;;;;0.67;0.67;;;;;;;7.78;100.00;100203.28;5090306;28;20213;-75
2023/03/04 03:35:21;;;;;;;0.70;0.70;;;;;;;7.84;100.00;100203.47;5089893;28;20212;-76
2023/03/04 03:37:48;;;;;;;0.60;0.60;;;;;;;7.83;100.00;100206.00;5090156;28;20190;-76
2023/03/04 03:40:16;;;;;;;1.40;1.30;;;;;;;7.73;100.00;100204.88;5089932;28;20222;-76
2023/03/04 03:42:43;;;;;;;2.70;2.60;;;;;;;7.55;100.00;100169.94;5090137;28;20226;-76
2023/03/04 03:45:11;;;;;;;0.70;0.70;;;;;;;7.60;100.00;100184.69;5090286;28;20202;-76
2023/03/04 03:47:38;;;;;;;0.90;0.90;;;;;;;7.59;100.00;100188.13;5090100;28;20195;-75
2023/03/04 03:50:06;;;;;;;0.60;0.60;;;;;;;7.63;100.00;100174.50;5090013;28;20206;-76
2023/03/04 03:52:34;;;;;;;0.90;0.90;;;;;;;7.84;100.00;100207.75;5090048;28;20190;-76
2023/03/04 03:55:01;;;;;;;1.07;1.07;;;;;;;7.78;100.00;100202.41;5089703;28;20210;-76
2023/03/04 03:57:28;;;;;;;0.50;0.50;;;;;;;7.71;100.00;100200.47;5089828;28;20254;-76
2023/03/04 03:59:55;;;;;;;0.63;0.63;;;;;;;7.63;100.00;100171.03;5089824;28;20213;-76
2023/03/04 04:02:23;;;;;;;0.50;0.50;;;;;;;7.68;100.00;100200.41;5089742;28;20233;-76
2023/03/04 04:04:49;;;;;;;0.90;0.90;;;;;;;7.59;100.00;100200.16;5090646;28;20210;-76
2023/03/04 04:07:16;;;;;;;0.70;0.70;;;;;;;7.63;100.00;100200.28;5093494;28;20193;-76
2023/03/04 04:09:45;;;;;;;0.70;0.70;;;;;;;7.62;100.00;100185.63;5093735;28;20202;-76
2023/03/04 04:12:14;;;;;;;0.67;0.67;;;;;;;7.81;100.00;100205.09;5093945;28;20194;-76
2023/03/04 04:14:41;;;;;;;0.80;0.80;;;;;;;7.74;100.00;100200.59;5077870;28;20223;-76
2023/03/04 04:17:08;;;;;;;0.80;0.80;;;;;;;7.73;100.00;100198.84;5073180;28;20199;-76
2023/03/04 04:19:35;;;;;;;0.73;0.73;;;;;;;7.72;100.00;100200.53;5073087;28;20203;-76
2023/03/04 04:22:02;;;;;;;0.60;0.60;;;;;;;7.71;100.00;100203.06;5073204;28;20219;-76
2023/03/04 04:24:29;;;;;;;0.60;0.60;;;;;;;7.65;100.00;100197.72;5073203;28;20210;-77
2023/03/04 04:26:57;;;;;;;0.80;0.80;;;;;;;7.71;100.00;100200.47;5089538;28;20206;-77
2023/03/04 04:29:24;;;;;;;1.00;1.00;;;;;;;7.68;100.00;100190.06;5093649;28;20225;-76
2023/03/04 04:31:51;;;;;;;0.60;0.60;;;;;;;7.68;100.00;100185.78;5093408;28;20692;-76
2023/03/04 04:34:18;;;;;;;0.73;0.73;;;;;;;7.49;100.00;100153.44;5057617;28;20217;-76
2023/03/04 04:36:45;;;;;;;0.70;0.70;;;;;;;7.67;100.00;100188.34;5093163;28;20217;-76
2023/03/04 04:39:11;;;;;;;0.80;0.80;;;;;;;7.55;100.00;100182.84;5092176;28;20284;-76
2023/03/04 04:41:40;;;;;;;1.47;1.43;;;;;;;7.57;100.00;100183.72;5092996;28;20225;-77
2023/03/04 04:44:09;;;;;;;0.60;0.60;;;;;;;7.48;100.00;100193.00;5057440;28;20202;-76
2023/03/04 04:46:37;;;;;;;0.80;0.80;;;;;;;7.49;100.00;100189.56;5092477;28;20194;-76
2023/03/04 04:49:04;;;;;;;0.97;0.97;;;;;;;7.49;100.00;100199.88;5092544;28;20202;-75
2023/03/04 04:51:31;;;;;;;0.60;0.60;;;;;;;7.47;100.00;100196.38;5092695;28;20589;-76
2023/03/04 04:53:59;;;;;;;0.90;0.90;;;;;;;7.43;100.00;100204.84;5091669;28;20198;-76
2023/03/04 04:56:26;;;;;;;1.20;1.20;;;;;;;7.41;100.00;100200.50;5088766;28;20198;-76
2023/03/04 04:58:54;;;;;;;4.53;2.10;;;;;;;7.41;100.00;100201.38;5084723;28;20209;-78
2023/03/04 05:01:23;;;;;;;0.70;0.70;;;;;;;7.42;100.00;100202.22;5086092;28;20222;-78
2023/03/04 05:03:52;;;;;;;0.50;0.50;;;;;;;7.29;100.00;100185.53;5085184;28;20206;-76
2023/03/04 05:06:19;;;;;;;0.60;0.60;;;;;;;7.21;100.00;100181.84;5030976;28;20298;-77
2023/03/04 05:08:46;;;;;;;0.67;0.67;;;;;;;7.37;100.00;100183.19;5083965;28;20621;-74
2023/03/04 05:11:13;;;;;;;1.17;1.17;;;;;;;7.58;100.00;100206.13;5081607;28;20202;-76
2023/03/04 05:13:40;;;;;;;1.87;1.83;;;;;;;7.48;100.00;100216.19;5083121;28;20199;-77
2023/03/04 05:16:08;;;;;;;0.80;0.80;;;;;;;7.57;100.00;100210.41;5084906;28;20205;-77
2023/03/04 05:18:36;;;;;;;0.70;0.70;;;;;;;7.28;100.00;100183.78;5031865;28;20226;-76
2023/03/04 05:21:04;;;;;;;0.50;0.50;;;;;;;7.61;100.00;100213.97;5081272;28;20194;-76
2023/03/04 05:23:32;;;;;;;0.70;0.70;;;;;;;7.61;100.00;100209.69;5080478;28;20202;-76
2023/03/04 05:26:00;;;;;;;0.50;0.50;;;;;;;7.59;100.00;100216.50;5078687;28;20203;-75
2023/03/04 05:28:26;;;;;;;0.80;0.80;;;;;;;7.61;100.00;100213.97;5087964;28;20210;-75
2023/03/04 05:30:53;;;;;;;1.00;1.00;;;;;;;7.44;100.00;100195.41;5076286;28;20205;-78
2023/03/04 05:33:20;;;;;;;0.60;0.60;;;;;;;7.48;100.00;100192.09;5072601;28;20206;-74
2023/03/04 05:35:49;;;;;;;0.80;0.80;;;;;;;7.61;100.00;100219.13;5071971;28;20215;-76
2023/03/04 05:38:18;;;;;;;10.47;4.30;;;;;;;7.67;100.00;100220.16;5079624;28;20225;-75
2023/03/04 05:40:46;;;;;;;0.70;0.70;;;;;;;7.48;100.00;100203.31;5090912;28;20202;-77
2023/03/04 05:43:14;;;;;;;0.60;0.60;;;;;;;7.64;100.00;100219.19;5085940;28;20230;-77
2023/03/04 05:45:42;;;;;;;1.00;1.00;;;;;;;7.77;100.00;100217.03;5086179;28;20213;-77
2023/03/04 05:48:09;;;;;;;1.30;1.30;;;;;;;7.69;100.00;100223.69;5084690;28;20209;-79
2023/03/04 05:50:37;;;;;;;0.60;0.60;;;;;;;7.56;100.00;100220.72;5091939;28;20228;-78
2023/03/04 05:53:05;;;;;;;2.10;1.57;;;;;;;7.74;100.00;100223.81;5090329;28;20224;-80
2023/03/04 05:55:32;;;;;;;0.80;0.80;;;;;;;7.83;100.00;100232.69;5090584;28;20213;-78
2023/03/04 05:57:59;;;;;;;0.90;0.90;;;;;;;7.90;100.00;100236.31;5091204;28;20238;-76
2023/03/04 06:00:26;;;;;;;0.80;0.80;;;;;;;8.02;100.00;100235.78;5055842;28;20198;-76
2023/03/04 06:02:53;;;;;;;0.80;0.80;;;;;;;8.08;100.00;100249.72;5084803;28;20309;-79
2023/03/04 06:05:20;;;;;;;1.10;1.10;;;;;;;8.31;100.00;100259.00;5089918;28;20198;-72
2023/03/04 06:07:47;;;;;;;1.77;1.77;;;;;;;8.39;100.00;100262.66;5084265;28;20203;-77
2023/03/04 06:10:17;;;;;;;0.90;0.90;;;;;;;8.29;100.00;100249.47;5089651;28;20213;-74
2023/03/04 06:12:44;;;;;;;1.10;1.10;;;;;;;8.52;100.00;100273.34;5038478;28;20582;-74
2023/03/04 06:15:12;;;;;;;0.90;0.90;;;;;;;8.50;100.00;100256.91;5090690;28;20205;-75
2023/03/04 06:17:40;;;;;;;2.93;1.20;;;;;;;8.61;100.00;100268.38;5090460;28;20194;-74
2023/03/04 06:20:08;;;;;;;0.60;0.60;;;;;;;8.71;100.00;100285.88;5089877;28;20206;-75
2023/03/04 06:22:35;;;;;;;0.80;0.80;;;;;;;8.80;100.00;100286.13;5089686;28;20222;-72
2023/03/04 06:25:02;;;;;;;2.90;1.47;;;;;;;9.02;100.00;100283.25;5090525;28;20202;-76
2023/03/04 06:27:30;;;;;;;0.70;0.70;;;;;;;9.11;100.00;100290.34;5089818;28;20213;-78
2023/03/04 06:29:57;;;;;;;0.60;0.60;;;;;;;9.00;100.00;100294.38;5090798;28;20206;-79
2023/03/04 06:32:24;;;;;;;0.70;0.70;;;;;;;8.96;100.00;100260.69;5083023;28;20206;-72
2023/03/04 06:34:51;;;;;;;0.80;0.80;;;;;;;9.24;100.00;100294.97;5091185;28;20202;-80
2023/03/04 06:37:17;;;;;;;1.10;1.10;;;;;;;9.29;100.00;100299.41;5076214;28;20319;-78
2023/03/04 06:39:44;;;;;;;1.00;1.00;;;;;;;9.58;100.00;100301.78;5090125;28;20228;-78
2023/03/04 06:42:11;;;;;;;0.50;0.50;;;;;;;9.68;100.00;100301.16;5090395;28;20225;-79
2023/03/04 06:44:39;;;;;;;1.07;1.07;;;;;;;9.62;100.00;100303.59;5082559;28;20190;-78
2023/03/04 06:47:07;;;;;;;0.80;0.80;;;;;;;9.66;100.00;100301.13;5089420;28;20190;-75
2023/03/04 06:49:34;;;;;;;0.50;0.50;;;;;;;10.04;100.00;100288.97;5090132;28;20202;-76
2023/03/04 06:52:00;;;;;;;0.60;0.60;;;;;;;9.71;100.00;100304.69;5033226;28;20205;-74
2023/03/04 06:54:27;;;;;;;1.30;1.20;;;;;;;9.95;100.00;100315.56;5089709;28;20198;-78
2023/03/04 06:56:54;;;;;;;0.60;0.60;;;;;;;10.09;100.00;100307.22;5089787;28;20229;-76
2023/03/04 06:59:21;;;;;;;0.73;0.73;;;;;;;10.27;100.00;100318.84;5089531;28;20210;-77
2023/03/04 07:01:49;;;;;;;0.70;0.70;;;;;;;10.36;100.00;100316.44;5084484;28;20656;-77
2023/03/04 07:04:16;;;;;;;0.80;0.80;;;;;;;10.62;100.00;100323.84;5050219;28;20210;-76
2023/03/04 07:06:42;;;;;;;0.70;0.70;;;;;;;10.89;100.00;100307.03;5045932;28;20210;-79
2023/03/04 07:09:09;;;;;;;0.70;0.70;;;;;;;11.01;100.00;100321.97;5089600;28;20210;-78
2023/03/04 07:11:36;;;;;;;0.60;0.60;;;;;;;10.99;100.00;100323.63;5089405;28;20193;-76
2023/03/04 07:14:03;;;;;;;1.00;1.00;;;;;;;10.48;100.00;100317.53;5088634;28;20214;-75
2023/03/04 07:16:30;;;;;;;1.40;1.40;;;;;;;10.92;100.00;100301.03;5048269;28;20194;-78
2023/03/04 07:18:58;;;;;;;1.77;1.67;;;;;;;10.63;100.00;100292.72;5048463;28;20202;-77
2023/03/04 07:21:25;;;;;;;0.63;0.63;;;;;;;10.78;100.00;100318.06;5077406;28;20210;-75
2023/03/04 07:23:52;;;;;;;0.60;0.60;;;;;;;11.01;100.00;100316.75;5084175;28;20218;-76
2023/03/04 07:26:19;;;;;;;1.00;1.00;;;;;;;11.29;100.00;100318.97;5088925;28;20692;-75
2023/03/04 07:28:46;;;;;;;0.60;0.60;;;;;;;11.43;100.00;100322.63;5090065;28;20212;-74
2023/03/04 07:31:22;;;;;;;0.60;0.60;;;;;;;11.42;100.00;100322.59;5089490;28;20206;-77
2023/03/04 07:33:48;;;;;;;0.60;0.60;;;;;;;10.95;100.00;100312.31;5088037;28;20300;-76
2023/03/04 07:36:18;;;;;;;1.80;1.70;;;;;;;11.03;100.00;100309.00;5088609;28;20203;-75
2023/03/04 07:38:45;;;;;;;0.80;0.80;;;;;;;11.01;100.00;100290.81;5089576;28;20198;-75
2023/03/04 07:41:12;;;;;;;0.50;0.50;;;;;;;11.24;100.00;100291.16;5082511;28;20190;-77
2023/03/04 07:43:39;;;;;;;0.60;0.60;;;;;;;11.24;100.00;100289.44;5092866;28;20234;-76
2023/03/04 07:46:06;;;;;;;0.40;0.40;;;;;;;11.41;100.00;100306.16;5092912;28;20665;-76
2023/03/04 07:48:33;;;;;;;0.70;0.70;;;;;;;11.39;100.00;100289.69;5093542;28;20579;-75
2023/03/04 07:51:07;;;;;;;0.95;0.95;;;;;;;11.44;100.00;100301.03;5093211;28;20657;-77
2023/03/04 07:53:37;;;;;;;0.70;0.70;;;;;;;11.21;100.00;100299.78;5092762;28;20201;-76
2023/03/04 07:56:05;;;;;;;1.15;1.15;;;;;;;11.09;100.00;100304.81;5052657;28;20206;-76
2023/03/04 07:58:32;;;;;;;1.20;1.20;;;;;;;10.78;100.00;100266.19;5092523;28;20225;-76
2023/03/04 08:00:59;;;;;;;0.70;0.70;;;;;;;11.00;100.00;100294.25;5040666;28;20224;-76
2023/03/04 08:03:26;;;;;;;0.60;0.60;;;;;;;10.92;100.00;100281.16;5090460;28;20703;-74
2023/03/04 08:05:53;;;;;;;0.70;0.70;;;;;;;11.13;100.00;100288.41;5092886;28;20202;-77
2023/03/04 08:08:20;;;;;;;0.60;0.60;;;;;;;11.11;100.00;100284.94;5088712;28;20206;-76
2023/03/04 08:10:48;;;;;;;0.60;0.60;;;;;;;11.17;100.00;100298.00;5088446;28;20229;-73
2023/03/04 08:13:15;;;;;;;0.80;0.80;;;;;;;11.18;100.00;100280.69;5091857;28;20206;-75
2023/03/04 08:15:42;;;;;;;0.80;0.80;;;;;;;11.25;100.00;100274.75;5089108;28;20315;-75
2023/03/04 08:18:09;;;;;;;0.70;0.70;;;;;;;11.43;100.00;100286.28;5091714;28;20207;-76
2023/03/04 08:20:36;;;;;;;0.70;0.70;;;;;;;11.47;100.00;100291.53;5092464;28;20201;-78
2023/03/04 08:23:03;;;;;;;0.60;0.60;;;;;;;11.19;100.00;100238.34;5091690;28;20704;-76
2023/03/04 08:25:30;;;;;;;0.60;0.60;;;;;;;11.70;100.00;100290.16;5091864;28;20214;-78
2023/03/04 08:27:59;;;;;;;0.60;0.60;;;;;;;11.66;100.00;100277.97;5053236;28;20214;-73
2023/03/04 08:30:26;;;;;;;1.30;1.30;;;;;;;12.20;100.00;100276.06;5091466;28;20203;-75
2023/03/04 08:32:52;;;;;;;0.60;0.60;;;;;;;12.09;100.00;100262.09;5092354;28;20213;-74
2023/03/04 08:35:19;;;;;;;2.35;2.25;;;;;;;12.25;100.00;100279.59;5092177;28;20214;-77
2023/03/04 08:37:46;;;;;;;0.80;0.80;;;;;;;12.61;100.00;100278.25;5092291;28;20202;-74
2023/03/04 08:40:14;;;;;;;1.58;1.48;;;;;;;12.21;100.00;100269.16;5040116;28;20289;-75
2023/03/04 08:42:41;;;;;;;0.50;0.50;;;;;;;12.47;100.00;100275.50;5091618;28;20222;-75
2023/03/04 08:45:10;;;;;;;0.60;0.60;;;;;;;12.55;100.00;100270.41;5092244;28;20210;-77
2023/03/04 08:47:38;;;;;;;0.60;0.60;;;;;;;12.14;100.00;100278.59;5092670;28;20217;-71
2023/03/04 08:50:06;;;;;;;0.70;0.70;;;;;;;12.06;100.00;100267.25;5092084;28;20209;-74
2023/03/04 08:52:33;;;;;;;0.65;0.65;;;;;;;11.97;100.00;100264.53;5091850;28;20198;-75
2023/03/04 08:54:59;;;;;;;0.80;0.80;;;;;;;11.54;100.00;100246.63;5092502;28;20687;-76
2023/03/04 08:57:26;;;;;;;0.77;0.77;;;;;;;11.74;100.00;100261.66;5092674;28;20588;-75
2023/03/04 08:59:53;;;;;;;1.45;1.45;;;;;;;11.36;100.00;100237.72;5092756;28;20206;-75
2023/03/04 09:02:21;;;;;;;0.60;0.60;;;;;;;11.58;100.00;100253.59;5092234;28;20198;-76
2023/03/04 09:04:48;;;;;;;0.57;0.57;;;;;;;11.47;100.00;100248.25;5092719;28;20201;-75
2023/03/04 09:07:15;;;;;;;1.10;1.10;;;;;;;11.36;100.00;100242.94;5092549;28;20221;-74
2023/03/04 09:09:42;;;;;;;0.60;0.60;;;;;;;11.38;100.00;100249.00;5092485;28;20198;-75
2023/03/04 09:12:09;;;;;;;0.60;0.60;;;;;;;11.24;100.00;100227.16;5092397;28;20202;-74
2023/03/04 09:14:36;;;;;;;0.70;0.70;;;;;;;11.14;100.00;100234.78;5087094;28;20198;-75
2023/03/04 09:17:03;;;;;;;0.80;0.80;;;;;;;11.02;100.00;100209.56;5090848;28;20622;-76
2023/03/04 09:19:31;;;;;;;2.80;2.70;;;;;;;10.97;100.00;100224.16;5085497;28;20213;-75
2023/03/04 09:21:58;;;;;;;0.80;0.80;;;;;;;11.09;100.00;100226.09;5088316;28;20581;-73
2023/03/04 09:24:25;;;;;;;0.50;0.50;;;;;;;11.43;100.00;100239.56;5089370;28;20672;-76
2023/03/04 09:26:53;;;;;;;0.70;0.70;;;;;;;11.39;100.00;100242.97;5085018;28;20237;-75
2023/03/04 09:29:21;;;;;;;0.60;0.60;;;;;;;11.25;100.00;100221.13;5089879;28;20194;-75
2023/03/04 09:31:48;;;;;;;0.60;0.60;;;;;;;11.59;100.00;100234.59;5086005;28;20206;-75
2023/03/04 09:34:15;;;;;;;1.15;1.15;;;;;;;11.54;100.00;100220.66;5087994;28;20205;-76
2023/03/04 09:36:43;;;;;;;0.93;0.93;;;;;;;11.41;100.00;100194.50;5087857;28;20205;-77
2023/03/04 09:39:10;;;;;;;0.53;0.53;;;;;;;11.60;100.00;100223.31;5088003;28;20207;-74
2023/03/04 09:41:40;;;;;;;2.05;1.88;;;;;;;11.79;100.00;100220.16;5084935;28;20288;-76
2023/03/04 09:44:15;;;;;;;0.90;0.90;;;;;;;11.76;100.00;100222.72;5079908;28;20225;-75
2023/03/04 09:46:45;;;;;;;0.60;0.60;;;;;;;11.57;100.00;100221.56;5036694;28;20198;-74
2023/03/04 09:49:13;;;;;;;0.70;0.70;;;;;;;11.70;100.00;100218.25;5084405;28;20202;-75
2023/03/04 09:51:55;;;;;;;0.60;0.60;;;;;;;12.16;100.00;100219.72;5086707;28;20661;-75
2023/03/04 09:54:32;;;;;;;0.90;0.90;;;;;;;12.41;100.00;100211.28;5084261;28;20206;-76
2023/03/04 09:57:13;;;;;;;1.15;1.15;;;;;;;12.67;100.00;100218.47;5083122;28;20234;-75
2023/03/04 09:59:47;;;;;;;0.75;0.75;;;;;;;12.71;100.00;100215.03;5086266;28;20210;-74
2023/03/04 10:02:22;;;;;;;0.50;0.50;;;;;;;13.04;100.00;100211.84;5078589;28;20197;-75
2023/03/04 10:04:53;;;;;;;0.80;0.80;;;;;;;12.96;100.00;100210.91;5081516;28;20217;-75
2023/03/04 10:07:26;;;;;;;0.80;0.80;;;;;;;12.67;100.00;100208.06;5086504;28;20199;-74
2023/03/04 10:09:59;;;;;;;0.60;0.60;;;;;;;12.84;100.00;100190.88;5085953;28;20202;-75
2023/03/04 10:12:30;;;;;;;0.47;0.47;;;;;;;12.98;100.00;100207.47;5088754;28;20198;-73
2023/03/04 10:15:02;;;;;;;0.60;0.60;;;;;;;12.76;100.00;100188.22;5081996;28;20201;-74
2023/03/04 10:17:36;;;;;;;0.60;0.60;;;;;;;12.75;100.00;100196.00;5085181;28;20198;-74
2023/03/04 10:20:06;;;;;;;0.68;0.68;;;;;;;12.56;100.00;100162.88;5076313;28;20197;-75
2023/03/04 10:22:36;;;;;;;0.50;0.50;;;;;;;12.57;100.00;100188.03;5087381;28;20205;-75
2023/03/04 10:25:17;;;;;;;1.13;1.02;;;;;;;12.42;100.00;100187.03;5089791;28;20193;-76
2023/03/04 10:27:50;;;;;;;0.80;0.80;;;;;;;12.59;100.00;100168.13;5086885;28;20607;-77
2023/03/04 10:30:23;;;;;;;0.60;0.60;;;;;;;12.69;100.00;100164.75;5084186;28;20206;-77
2023/03/04 10:32:50;;;;;;;3.35;1.25;;;;;;;13.03;100.00;100171.91;5089633;28;20219;-78
2023/03/04 10:35:26;;;;;;;0.70;0.70;;;;;;;13.02;100.00;100170.16;5078401;28;20194;-77
2023/03/04 10:37:54;;;;;;;0.60;0.60;;;;;;;12.84;100.00;100165.69;5083355;28;20210;-75
2023/03/04 10:40:23;;;;;;;0.60;0.60;;;;;;;13.07;100.00;100163.25;5089507;28;20221;-79
2023/03/04 10:42:50;;;;;;;0.70;0.70;;;;;;;13.05;100.00;100148.50;5088856;28;20194;-77
2023/03/04 10:45:22;;;;;;;0.50;0.50;;;;;;;13.24;100.00;100151.25;5089071;28;20198;-77
2023/03/04 10:47:53;;;;;;;0.50;0.50;;;;;;;13.09;100.00;100145.94;5089551;28;20208;-79
2023/03/04 10:50:26;;;;;;;0.77;0.77;;;;;;;13.19;100.00;100141.69;5089879;28;20226;-80
2023/03/04 10:52:55;;;;;;;0.70;0.70;;;;;;;12.95;100.00;100123.28;5038318;28;20270;-72
2023/03/04 10:55:25;;;;;;;0.60;0.60;;;;;;;12.78;100.00;100071.13;5086807;28;20198;-78
2023/03/04 10:57:54;;;;;;;0.60;0.60;;;;;;;12.66;100.00;100073.66;5089135;28;20567;-78
2023/03/04 11:00:28;;;;;;;1.63;1.52;;;;;;;12.74;100.00;100127.47;5086349;28;20508;-70
2023/03/04 11:03:28;;;;;;;8.60;4.00;;;;;;;12.78;100.00;100112.75;5089355;28;20206;-77
2023/03/04 11:06:11;;;;;;;0.82;0.82;;;;;;;12.72;100.00;100099.72;5082869;28;20217;-74
2023/03/04 11:08:41;;;;;;;0.52;0.52;;;;;;;12.98;100.00;100105.97;5089146;28;20198;-77
2023/03/04 11:11:23;;;;;;;0.60;0.60;;;;;;;13.13;100.00;100105.19;5082517;28;20201;-77
2023/03/04 11:13:53;;;;;;;0.68;0.68;;;;;;;13.15;100.00;100096.53;5078037;28;20203;-77
2023/03/04 11:16:26;;;;;;;0.60;0.60;;;;;;;13.37;100.00;100090.56;5093506;28;20197;-77
2023/03/04 11:18:58;;;;;;;0.60;0.60;;;;;;;13.31;100.00;100089.63;5088280;28;20213;-78
2023/03/04 11:21:29;;;;;;;0.60;0.60;;;;;;;13.05;100.00;100081.72;5083215;28;20202;-77
2023/03/04 11:24:00;;;;;;;0.60;0.60;;;;;;;13.36;100.00;100088.81;5090485;28;20226;-82
2023/03/04 11:26:30;;;;;;;1.05;1.05;;;;;;;13.28;100.00;100074.00;5083270;28;20202;-77